Bemidji Regional Airport
KBJI : now visible

Aeroporto :











RITROVATECI SU...

 
LOGIN :

Iscrizione | Disclaimer

   EN    FR    IT 

 









Sommario :    VFR   VFR Marginale   IFR   IFR Intensivo   IFR Molto Intensivo
Visibilità : 
Base nubi : 
>= 8 km
>= 3000ft
5 / 8 km
1000 / 3000 ft
1500m / 5 km
500 / 1000 ft
800 / 1500m
200 / 500 ft
< 800m
< 200 ft
Simboli :   Temporali  Nebbia  Neve Forte  Precipitazioni Forti  Vento > 20 kt







- Altitudine del aeroporto : 1391 ft


KBJI - Bemidji Regional

ULTIMO METAR :
  • 201556Z AUTO 34010KT 10SM OVC019 20/17 A2997 RMK AO2 T01970168

METARs OBSOLETI :
  • 201536Z AUTO 33009KT 10SM SCT009 OVC019 20/18 A2996 RMK AO2 T02010179
  • 201516Z AUTO 32011KT 10SM BKN009 OVC019 20/18 A2995 RMK AO2 T02020182
  • 201459Z AUTO 30008KT 10SM SCT007 BKN019 BKN055 20/18 A2994 RMK AO2 T02020181
  • 201436Z AUTO 30005KT 10SM BKN070 20/18 A2992 RMK AO2 T01960179
  • 201416Z AUTO 00000KT 10SM SCT070 20/18 A2991 RMK AO2 T01960175
  • 201356Z AUTO 00000KT 10SM CLR 19/18 A2990 RMK AO2 T01870176
  • 201338Z AUTO 00000KT 10SM CLR 18/18 A2990 RMK AO2 T01840175
  • 201315Z AUTO 33003KT 10SM BKN011 18/17 A2989 RMK AO2 LTG DSNT SE T01800172

TAF KBJI
Valido dal 20 a 12 ore il 21 a 12 ore UTC


201139Z 2012/2112 VRB06KT P6SM -TSRA OVC080CB
FM201300 VRB05KT P6SM OVC120
FM201500 33010KT P6SM SCT030
FM201800 34013G18KT P6SM SKC
FM210200 VRB06KT P6SM SKC
Nessun NOTAM noto per questo aeroporto.



MetMap, La meteo Aeronautica in un colpo d'occhio ! - Copyright ORBIFLY Dicembre 2007 - Disclaimer

ORBIFLY MET'MAP TEAM :

Programmazione e sviluppo : Alexandra Zaïnal
Concezione e sviluppo : Baudouin d'Aumeries
Co-Programmazione e sviluppo : Marc-Olivier Méhu
Supporto tecnico e logistico : Manuel Goepfert
Aiuto per la traduzione : Arnaldo La Scala

Contatto : metmap@orbifly.com




FONTI E CREDITI :

   NOAA       Earth
Advisory